»·PEaware :: EAL1272 KSAN-KSBA

EAL1272 :: KSAN-KSBA

FLIGHT INFORMATION

Flight Status: Arrived
Operator:
Eastern Air Lines
More flights by this operator :: More flights under this callsign
Pilot: Alex S. (7186)
Aircraft: BOEING 727-100
(B721)
More flights by this aircraft type
Origin: KSAN San Diego Intl-Lindbergh
United States
Destination: KSBA Santa Barbara Mun
United States
More flights between these airports :: More routes between these airports
Route: PEBLE6 SXC V208 VTU VTU282 KWANG
File this flight plan on PilotEdge
Remarks:
Altitude:
(Current/Filed)
10,000ft
Speed:
(Current/Filed)
322kts
Departed: 07-Oct-17 01:34 PM
Arrived: 07-Oct-17 02:13 PM
Distance/Time
Traveled:
167nm/0:39
Distance/Time
To Go:
Arrived

Flight Plot

Page will automatically refresh every two minutes.


Map Options




Map Legend


Flown Route
Filed Route
Departure Airport
Arrival Airport
Navaid (VOR, NDB)
Fix

Horizontal Profiles

Position Reports

Time Latitude Longitude Heading Altitude Ground
Speed
07-Oct-17 13:12 32.731852 -117.195857 247 23ft 0kts
07-Oct-17 13:13 32.731852 -117.195857 247 23ft 0kts
07-Oct-17 13:14 32.731852 -117.195857 247 23ft 0kts
07-Oct-17 13:15 32.731852 -117.195857 247 23ft 0kts
07-Oct-17 13:16 32.731852 -117.195857 247 23ft 0kts
07-Oct-17 13:17 32.731852 -117.195857 247 23ft 0kts
07-Oct-17 13:18 32.731852 -117.195857 247 23ft 0kts
07-Oct-17 13:19 32.731852 -117.195857 247 23ft 0kts
07-Oct-17 13:20 32.731852 -117.195857 247 23ft 0kts
07-Oct-17 13:21 32.731852 -117.195857 247 23ft 0kts
07-Oct-17 13:22 32.731852 -117.195857 247 23ft 0kts
07-Oct-17 13:23 32.731852 -117.195857 247 23ft 0kts
07-Oct-17 13:24 32.731852 -117.195857 247 23ft 0kts
07-Oct-17 13:25 32.731852 -117.195857 247 23ft 0kts
07-Oct-17 13:26 32.731852 -117.195857 247 23ft 0kts
07-Oct-17 13:27 32.731852 -117.195857 247 23ft 0kts
07-Oct-17 13:28 32.731852 -117.195857 247 23ft 0kts
07-Oct-17 13:29 32.731999 -117.195280 283 24ft 1kts
07-Oct-17 13:30 32.731718 -117.195030 3 24ft 0kts
07-Oct-17 13:31 32.731718 -117.195030 3 24ft 0kts
07-Oct-17 13:32 32.731916 -117.195018 3 24ft 0kts
07-Oct-17 13:33 32.732162 -117.194928 27 24ft 9kts
07-Oct-17 13:34 32.733254 -117.192714 106 25ft 15kts
07-Oct-17 13:35 32.731893 -117.187129 106 25ft 19kts
07-Oct-17 13:36 32.730399 -117.180867 105 24ft 20kts
07-Oct-17 13:37 32.729586 -117.176426 71 27ft 9kts
07-Oct-17 13:38 32.732237 -117.184415 285 25ft 123kts
07-Oct-17 13:39 32.755026 -117.233503 305 2644ft 202kts
07-Oct-17 13:40 32.789070 -117.288950 305 6337ft 215kts
07-Oct-17 13:41 32.831138 -117.358952 305 8568ft 283kts
07-Oct-17 13:42 32.880651 -117.441376 305 10029ft 351kts
07-Oct-17 13:43 32.952099 -117.517804 308 10006ft 331kts
07-Oct-17 13:44 33.006075 -117.606954 305 10006ft 341kts
07-Oct-17 13:45 33.062283 -117.703289 304 10006ft 369kts
07-Oct-17 13:46 33.113671 -117.791197 304 10004ft 386kts
07-Oct-17 13:47 33.174347 -117.895160 304 10019ft 397kts
07-Oct-17 13:48 33.238054 -118.003744 304 10063ft 403kts
07-Oct-17 13:49 33.329247 -118.076879 317 10076ft 405kts
07-Oct-17 13:50 33.356444 -118.187373 265 10091ft 399kts
07-Oct-17 13:51 33.338740 -118.316608 240 10093ft 401kts
07-Oct-17 13:52 33.304785 -118.435576 287 10026ft 400kts
07-Oct-17 13:53 33.388810 -118.514102 338 10032ft 406kts
07-Oct-17 13:54 33.482044 -118.581027 301 10034ft 401kts
07-Oct-17 13:55 33.544340 -118.685568 306 10027ft 402kts
07-Oct-17 13:56 33.611642 -118.792692 306 10026ft 404kts
07-Oct-17 13:57 33.679517 -118.900373 306 9980ft 406kts
07-Oct-17 13:58 33.750162 -119.005535 323 9931ft 408kts
07-Oct-17 13:59 33.850920 -119.068430 331 9954ft 409kts
07-Oct-17 14:00 33.952416 -119.130577 332 9953ft 410kts
07-Oct-17 14:01 34.054064 -119.192824 332 9953ft 410kts
07-Oct-17 14:02 34.147483 -119.250057 332 9953ft 410kts
07-Oct-17 14:03 34.235921 -119.329283 294 9951ft 404kts
07-Oct-17 14:04 34.273203 -119.456380 293 9956ft 402kts
07-Oct-17 14:05 34.316430 -119.581361 278 8993ft 389kts
07-Oct-17 14:06 34.304975 -119.687295 260 7754ft 279kts
07-Oct-17 14:07 34.295906 -119.776628 290 6584ft 244kts
07-Oct-17 14:08 34.346527 -119.783477 60 5428ft 231kts
07-Oct-17 14:09 34.356557 -119.709034 82 4196ft 200kts
07-Oct-17 14:10 34.362741 -119.648738 81 3158ft 162kts
07-Oct-17 14:11 34.395536 -119.636050 319 2230ft 152kts
07-Oct-17 14:12 34.421617 -119.672755 309 1918ft 132kts
07-Oct-17 14:13 34.430645 -119.713303 267 2050ft 131kts
07-Oct-17 14:14 34.429316 -119.757538 268 1540ft 122kts
07-Oct-17 14:15 34.428842 -119.800340 267 694ft 129kts
07-Oct-17 14:16 34.427786 -119.841059 267 24ft 83kts
07-Oct-17 14:17 34.426531 -119.845345 88 24ft 11kts
07-Oct-17 14:18 34.426659 -119.839843 88 24ft 18kts
07-Oct-17 14:19 34.425250 -119.837637 113 24ft 9kts
07-Oct-17 14:20 34.425122 -119.837293 114 24ft 0kts
07-Oct-17 14:21 34.425122 -119.837293 114 24ft 0kts
07-Oct-17 14:22 34.425122 -119.837293 114 24ft 0kts

Navigation Log

Ident Type
1. KSAN Airport
2. MELDY Fix
3. PEBLE Fix
4. SXC Navaid
5. WEEZL Fix
6. VTU Navaid
7. KWANG Fix
8. KSBA Airport